Time;durP1;ratioP1;P1;durP2;ratioP2;P2;SDS_P1;SDS_P2;PMS_P1;PMS_P2;Temp;Humidity;BMP_temperature;BMP_pressure;BME280_temperature;BME280_humidity;BME280_pressure;Samples;Min_cycle;Max_cycle;Signal;HPM_P1;HPM_P2
2021/09/16 08:13:35;;;;;;;24.75;8.35;;;;;;;;;;5075783;28;20100;-70
2021/09/16 08:16:01;;;;;;;20.75;7.35;;;;;;;;;;5092137;28;20044;-71
2021/09/16 08:18:27;;;;;;;26.70;6.97;;;;;;;;;;5075031;28;20480;-70
2021/09/16 08:20:53;;;;;;;26.70;6.70;;;;;;;;;;5092996;28;20048;-71
2021/09/16 08:23:20;;;;;;;13.45;6.45;;;;;;;;;;5092735;28;20457;-71
2021/09/16 08:25:46;;;;;;;22.67;6.22;;;;;;;;;;5093113;28;20064;-70
2021/09/16 08:28:13;;;;;;;26.90;7.72;;;;;;;;;;5092856;28;20036;-73
2021/09/16 08:30:39;;;;;;;32.90;7.32;;;;;;;;;;5092830;28;20044;-70
2021/09/16 08:33:06;;;;;;;23.58;7.00;;;;;;;;;;5093189;28;20024;-72
2021/09/16 08:35:32;;;;;;;19.65;6.72;;;;;;;;;;5092246;28;20534;-71
2021/09/16 08:37:58;;;;;;;18.30;6.78;;;;;;;;;;5093078;28;20028;-70
2021/09/16 08:40:25;;;;;;;25.80;5.68;;;;;;;;;;5092725;28;20048;-71
2021/09/16 08:42:51;;;;;;;26.90;5.78;;;;;;;;;;5092762;28;20020;-70
2021/09/16 08:45:19;;;;;;;25.80;7.50;;;;;;;;;;5092856;28;20036;-69
2021/09/16 08:47:49;;;;;;;20.92;5.72;;;;;;;;;;5092891;28;20099;-71
2021/09/16 08:50:16;;;;;;;31.30;6.68;;;;;;;;;;5096940;28;20036;-71
2021/09/16 08:52:43;;;;;;;17.25;5.57;;;;;;;;;;5096943;28;20035;-71
2021/09/16 08:55:10;;;;;;;17.52;5.75;;;;;;;;;;5096768;28;20444;-71
2021/09/16 08:57:40;;;;;;;17.83;6.65;;;;;;;;;;5096627;28;20053;-71
2021/09/16 09:00:14;;;;;;;17.17;6.30;;;;;;;;;;5096702;28;20093;-71
2021/09/16 09:02:40;;;;;;;13.57;5.50;;;;;;;;;;5096161;28;20032;-71
2021/09/16 09:05:07;;;;;;;16.92;5.53;;;;;;;;;;5095265;28;20076;-72
2021/09/16 09:07:44;;;;;;;20.02;5.80;;;;;;;;;;5093716;28;20051;-73
2021/09/16 09:10:12;;;;;;;23.42;6.15;;;;;;;;;;5093502;28;20036;-72
2021/09/16 09:12:38;;;;;;;27.00;6.68;;;;;;;;;;5094825;28;20536;-72
2021/09/16 09:15:10;;;;;;;20.52;5.97;;;;;;;;;;5095295;28;20079;-72
2021/09/16 09:17:36;;;;;;;;;;;;;;;;;;5096541;28;20048;-72
2021/09/16 09:20:11;;;;;;;18.98;6.57;;;;;;;;;;5095770;28;19904;-71
2021/09/16 09:22:39;;;;;;;20.30;6.32;;;;;;;;;;5095743;28;20119;-71
2021/09/16 09:25:13;;;;;;;18.10;5.68;;;;;;;;;;5096367;28;20386;-71
2021/09/16 09:27:47;;;;;;;15.05;5.18;;;;;;;;;;5094024;28;20039;-72
2021/09/16 09:30:15;;;;;;;23.00;5.75;;;;;;;;;;5093431;28;20032;-70
2021/09/16 09:32:52;;;;;;;27.70;6.38;;;;;;;;;;5094530;28;20067;-70
2021/09/16 09:35:29;;;;;;;18.10;6.57;;;;;;;;;;5096185;28;20495;-70
2021/09/16 09:37:55;;;;;;;26.40;6.60;;;;;;;;;;5096376;28;20540;-71
2021/09/16 09:40:25;;;;;;;26.00;6.20;;;;;;;;;;5094515;28;20575;-70
2021/09/16 09:42:51;;;;;;;20.80;5.72;;;;;;;;;;5095843;28;20032;-70
2021/09/16 09:45:17;;;;;;;24.85;6.38;;;;;;;;;;5095267;28;20036;-71
2021/09/16 09:47:45;;;;;;;18.55;5.78;;;;;;;;;;5089418;28;20024;-70
2021/09/16 09:50:18;;;;;;;25.88;5.97;;;;;;;;;;5075388;28;20047;-70
2021/09/16 09:52:44;;;;;;;19.25;5.90;;;;;;;;;;5075068;28;20033;-71
2021/09/16 09:55:20;;;;;;;19.88;6.00;;;;;;;;;;5088958;28;20036;-70
2021/09/16 09:57:47;;;;;;;19.17;6.65;;;;;;;;;;5087091;28;20036;-70
2021/09/16 10:00:16;;;;;;;22.17;6.90;;;;;;;;;;5074774;28;20040;-72
2021/09/16 10:02:43;;;;;;;23.55;6.93;;;;;;;;;;5074934;28;20040;-69
2021/09/16 10:05:23;;;;;;;26.05;7.20;;;;;;;;;;5074962;28;20531;-70
2021/09/16 10:07:51;;;;;;;28.55;7.97;;;;;;;;;;5074921;28;20068;-70
2021/09/16 10:10:18;;;;;;;23.45;6.80;;;;;;;;;;5075064;28;20481;-70
2021/09/16 10:12:45;;;;;;;21.63;7.07;;;;;;;;;;5075083;28;20050;-72
2021/09/16 10:15:13;;;;;;;16.05;7.43;;;;;;;;;;5075235;28;20064;-71
2021/09/16 10:17:40;;;;;;;23.23;6.55;;;;;;;;;;5074683;28;20063;-71
2021/09/16 10:20:07;;;;;;;24.35;8.05;;;;;;;;;;5075313;28;20032;-71
2021/09/16 10:22:34;;;;;;;23.65;8.32;;;;;;;;;;5074857;28;20535;-71
2021/09/16 10:25:00;;;;;;;22.27;6.93;;;;;;;;;;5074909;28;20033;-70
2021/09/16 10:27:27;;;;;;;25.65;7.00;;;;;;;;;;5075033;28;20033;-70
2021/09/16 10:29:54;;;;;;;18.52;7.40;;;;;;;;;;5074572;28;20028;-70
2021/09/16 10:32:20;;;;;;;19.52;6.40;;;;;;;;;;5075141;28;20855;-70
2021/09/16 10:34:56;;;;;;;15.75;6.57;;;;;;;;;;5074852;28;20039;-70
2021/09/16 10:37:23;;;;;;;17.52;6.40;;;;;;;;;;5075045;28;20040;-69
2021/09/16 10:39:50;;;;;;;15.98;6.97;;;;;;;;;;5074573;28;20032;-69
2021/09/16 10:42:17;;;;;;;18.85;6.80;;;;;;;;;;5074701;28;20044;-70
2021/09/16 10:44:44;;;;;;;16.73;7.50;;;;;;;;;;5074630;28;20029;-69
2021/09/16 10:47:17;;;;;;;17.20;7.28;;;;;;;;;;5074813;28;20082;-69
2021/09/16 10:49:43;;;;;;;17.20;7.00;;;;;;;;;;5074608;28;20039;-70
2021/09/16 10:52:09;;;;;;;17.45;7.35;;;;;;;;;;5074278;28;20428;-70
2021/09/16 10:54:37;;;;;;;20.88;7.10;;;;;;;;;;5074335;28;20029;-72
2021/09/16 10:57:05;;;;;;;18.38;7.00;;;;;;;;;;5074437;28;20122;-70
2021/09/16 10:59:49;;;;;;;14.85;7.25;;;;;;;;;;5074420;28;20385;-70
2021/09/16 11:02:16;;;;;;;20.50;8.35;;;;;;;;;;5074281;28;20037;-72
2021/09/16 11:04:57;;;;;;;21.52;7.28;;;;;;;;;;5074156;28;20385;-69
2021/09/16 11:07:35;;;;;;;19.67;6.47;;;;;;;;;;5074062;28;20036;-69
2021/09/16 11:10:19;;;;;;;17.27;6.88;;;;;;;;;;5074246;28;20134;-69
2021/09/16 11:12:45;;;;;;;14.45;6.82;;;;;;;;;;5073696;28;20382;-69
2021/09/16 11:15:12;;;;;;;13.75;6.32;;;;;;;;;;5073971;28;20040;-69
2021/09/16 11:17:39;;;;;;;15.35;6.30;;;;;;;;;;5073365;28;20075;-69
2021/09/16 11:20:06;;;;;;;16.77;5.75;;;;;;;;;;5073586;28;20079;-69
2021/09/16 11:22:34;;;;;;;14.40;6.32;;;;;;;;;;5073918;28;20041;-71
2021/09/16 11:25:00;;;;;;;19.25;6.45;;;;;;;;;;5074082;28;20056;-69
2021/09/16 11:27:30;;;;;;;17.02;6.25;;;;;;;;;;5073669;28;20037;-69
2021/09/16 11:29:58;;;;;;;19.15;6.55;;;;;;;;;;5072907;28;20107;-71
2021/09/16 11:32:51;;;;;;;9.73;5.25;;;;;;;;;;5073713;28;20393;-72
2021/09/16 11:35:18;;;;;;;16.98;5.88;;;;;;;;;;5071463;28;20033;-69
2021/09/16 11:37:47;;;;;;;15.35;6.68;;;;;;;;;;5073704;28;20037;-69
2021/09/16 11:40:14;;;;;;;15.40;5.78;;;;;;;;;;5073274;28;20469;-69
2021/09/16 11:42:42;;;;;;;15.40;5.75;;;;;;;;;;5073679;28;20032;-69
2021/09/16 11:45:13;;;;;;;22.75;6.18;;;;;;;;;;5073390;28;20162;-70
2021/09/16 11:47:41;;;;;;;13.88;5.68;;;;;;;;;;5071550;28;20107;-70
2021/09/16 11:50:08;;;;;;;12.55;5.95;;;;;;;;;;5070459;28;20117;-71
2021/09/16 11:52:38;;;;;;;20.90;6.90;;;;;;;;;;5071260;28;20052;-69
2021/09/16 11:55:04;;;;;;;11.65;5.80;;;;;;;;;;5073038;28;20048;-69
2021/09/16 11:57:30;;;;;;;14.27;5.97;;;;;;;;;;5073480;28;20024;-71
2021/09/16 11:59:56;;;;;;;11.45;6.07;;;;;;;;;;5072974;28;20547;-72
2021/09/16 12:02:22;;;;;;;15.32;6.60;;;;;;;;;;5072770;28;20045;-71
2021/09/16 12:04:49;;;;;;;19.75;6.68;;;;;;;;;;5072946;28;20485;-71
2021/09/16 12:07:18;;;;;;;21.85;6.88;;;;;;;;;;5073088;28;20086;-70
2021/09/16 12:09:44;;;;;;;16.73;6.75;;;;;;;;;;5073203;28;20033;-71
2021/09/16 12:12:11;;;;;;;17.42;6.35;;;;;;;;;;5073221;28;20450;-71
2021/09/16 12:14:37;;;;;;;21.35;6.28;;;;;;;;;;5072795;28;20049;-72
2021/09/16 12:17:04;;;;;;;25.17;6.30;;;;;;;;;;5072705;28;20033;-71
2021/09/16 12:19:30;;;;;;;20.02;6.40;;;;;;;;;;5072899;28;20094;-71
2021/09/16 12:21:57;;;;;;;21.95;5.53;;;;;;;;;;5072984;28;20051;-71
2021/09/16 12:24:27;;;;;;;20.35;6.93;;;;;;;;;;5072821;28;20078;-70
2021/09/16 12:26:54;;;;;;;19.70;6.68;;;;;;;;;;5071502;28;20394;-71
2021/09/16 12:29:28;;;;;;;17.15;6.28;;;;;;;;;;5072944;28;20028;-72
2021/09/16 12:32:01;;;;;;;26.15;7.13;;;;;;;;;;5072809;28;20043;-71
2021/09/16 12:34:29;;;;;;;23.67;6.30;;;;;;;;;;5072591;28;20571;-71
2021/09/16 12:36:55;;;;;;;29.15;7.35;;;;;;;;;;5072756;28;20036;-72
2021/09/16 12:39:21;;;;;;;21.58;6.68;;;;;;;;;;5072826;28;20039;-71
2021/09/16 12:41:58;;;;;;;20.10;6.40;;;;;;;;;;5072565;28;20040;-71
2021/09/16 12:44:34;;;;;;;19.75;6.80;;;;;;;;;;5072621;28;20031;-71
2021/09/16 12:47:07;;;;;;;20.10;6.68;;;;;;;;;;5073044;28;20032;-71
2021/09/16 12:49:39;;;;;;;23.08;6.43;;;;;;;;;;5073034;28;20116;-71
2021/09/16 12:52:08;;;;;;;20.48;6.50;;;;;;;;;;5072746;28;20423;-70
2021/09/16 12:54:35;;;;;;;20.52;6.88;;;;;;;;;;5072619;28;20461;-71
2021/09/16 12:57:04;;;;;;;20.92;6.70;;;;;;;;;;5072351;28;20039;-71
2021/09/16 12:59:31;;;;;;;22.27;6.43;;;;;;;;;;5072488;28;20044;-71
2021/09/16 13:02:11;;;;;;;22.23;6.28;;;;;;;;;;5072690;28;20040;-71
2021/09/16 13:04:47;;;;;;;28.10;6.32;;;;;;;;;;5072549;28;20029;-71
2021/09/16 13:07:13;;;;;;;23.33;6.57;;;;;;;;;;5072518;28;20108;-72
2021/09/16 13:09:39;;;;;;;26.02;6.13;;;;;;;;;;5072027;28;20033;-72
2021/09/16 13:12:12;;;;;;;23.70;6.70;;;;;;;;;;5072750;28;20036;-69
2021/09/16 13:14:38;;;;;;;20.50;6.53;;;;;;;;;;5072249;28;20083;-71
2021/09/16 13:17:04;;;;;;;21.92;6.07;;;;;;;;;;5085822;28;20119;-71
2021/09/16 13:19:31;;;;;;;19.60;6.55;;;;;;;;;;5112968;28;20063;-71
2021/09/16 13:21:57;;;;;;;22.73;7.10;;;;;;;;;;5112276;28;20056;-71
2021/09/16 13:24:23;;;;;;;33.53;7.28;;;;;;;;;;5112825;28;20058;-71
2021/09/16 13:26:49;;;;;;;21.52;7.15;;;;;;;;;;5112388;28;20438;-70
2021/09/16 13:29:15;;;;;;;24.00;6.95;;;;;;;;;;5112723;28;20032;-72
2021/09/16 13:31:41;;;;;;;24.33;7.05;;;;;;;;;;5111748;28;20032;-72
2021/09/16 13:34:07;;;;;;;17.23;6.45;;;;;;;;;;5113212;28;20478;-71
2021/09/16 13:36:33;;;;;;;21.55;6.50;;;;;;;;;;5116684;28;20028;-72
2021/09/16 13:39:01;;;;;;;23.33;6.35;;;;;;;;;;5116032;28;20034;-71
2021/09/16 13:41:27;;;;;;;24.02;7.70;;;;;;;;;;5116218;28;20044;-71
2021/09/16 13:43:53;;;;;;;22.58;6.95;;;;;;;;;;5115304;28;20027;-70
2021/09/16 13:46:19;;;;;;;18.90;6.43;;;;;;;;;;5116018;28;20031;-71
2021/09/16 13:48:45;;;;;;;28.15;7.07;;;;;;;;;;5116421;28;20433;-70
2021/09/16 13:51:11;;;;;;;19.45;6.55;;;;;;;;;;5116158;28;20090;-71
2021/09/16 13:53:38;;;;;;;20.77;6.68;;;;;;;;;;5115925;28;20115;-71
2021/09/16 13:56:04;;;;;;;23.25;6.35;;;;;;;;;;5116291;28;20032;-71
2021/09/16 13:58:30;;;;;;;23.63;6.55;;;;;;;;;;5116153;28;20032;-71
2021/09/16 14:00:56;;;;;;;19.27;6.63;;;;;;;;;;5115850;28;20051;-72
2021/09/16 14:03:22;;;;;;;19.27;6.72;;;;;;;;;;5116129;28;20031;-72
2021/09/16 14:05:48;;;;;;;19.77;7.07;;;;;;;;;;5095808;28;20115;-71
2021/09/16 14:08:14;;;;;;;19.75;6.45;;;;;;;;;;5113225;28;20027;-72
2021/09/16 14:10:41;;;;;;;19.20;6.20;;;;;;;;;;5113820;28;20036;-71
2021/09/16 14:13:07;;;;;;;18.67;6.45;;;;;;;;;;5114311;28;20040;-71
2021/09/16 14:15:33;;;;;;;18.08;6.45;;;;;;;;;;5114416;28;20115;-71
2021/09/16 14:17:59;;;;;;;23.52;6.68;;;;;;;;;;5114279;28;20115;-70
2021/09/16 14:20:25;;;;;;;17.65;6.90;;;;;;;;;;5114041;28;20036;-70
2021/09/16 14:22:51;;;;;;;20.55;7.03;;;;;;;;;;5114160;28;20499;-71
2021/09/16 14:25:18;;;;;;;22.83;7.53;;;;;;;;;;5114564;28;20394;-70
2021/09/16 14:27:44;;;;;;;20.70;7.22;;;;;;;;;;5115124;28;20035;-70
2021/09/16 14:30:10;;;;;;;22.75;7.60;;;;;;;;;;5115362;28;20024;-70
2021/09/16 14:32:36;;;;;;;18.48;6.88;;;;;;;;;;5115156;28;20044;-71
2021/09/16 14:35:03;;;;;;;19.73;7.70;;;;;;;;;;5115046;28;20427;-72
2021/09/16 14:37:29;;;;;;;19.70;6.90;;;;;;;;;;5115236;28;20024;-71
2021/09/16 14:39:55;;;;;;;21.10;8.00;;;;;;;;;;5115082;28;20040;-71
2021/09/16 14:42:23;;;;;;;19.88;7.45;;;;;;;;;;5114671;28;20066;-70
2021/09/16 14:44:49;;;;;;;26.17;7.43;;;;;;;;;;5114460;28;20031;-70
2021/09/16 14:47:16;;;;;;;21.10;6.85;;;;;;;;;;5114889;28;20499;-70
2021/09/16 14:49:43;;;;;;;21.48;8.18;;;;;;;;;;5114895;28;20039;-72
2021/09/16 14:52:09;;;;;;;22.48;8.05;;;;;;;;;;5115062;28;20483;-71
2021/09/16 14:54:35;;;;;;;21.98;7.22;;;;;;;;;;5115132;28;20388;-71
2021/09/16 14:57:01;;;;;;;26.88;8.15;;;;;;;;;;5114840;28;20036;-71
2021/09/16 14:59:27;;;;;;;26.25;7.78;;;;;;;;;;5115040;28;20124;-70
2021/09/16 15:01:53;;;;;;;20.20;7.65;;;;;;;;;;5114742;28;20476;-72
2021/09/16 15:04:20;;;;;;;21.55;8.27;;;;;;;;;;5114912;28;20027;-71
2021/09/16 15:06:46;;;;;;;21.48;7.68;;;;;;;;;;5115071;28;20039;-71
2021/09/16 15:09:12;;;;;;;20.58;8.00;;;;;;;;;;5113726;28;20556;-71
2021/09/16 15:11:38;;;;;;;22.23;7.72;;;;;;;;;;5111706;28;20047;-71
2021/09/16 15:14:05;;;;;;;22.08;7.65;;;;;;;;;;5111597;28;20031;-71
2021/09/16 15:16:31;;;;;;;22.70;7.72;;;;;;;;;;5114193;28;20433;-71
2021/09/16 15:18:57;;;;;;;19.55;7.30;;;;;;;;;;5115132;28;20349;-71
2021/09/16 15:21:23;;;;;;;19.45;7.63;;;;;;;;;;5114420;28;20474;-71
2021/09/16 15:23:49;;;;;;;21.50;7.72;;;;;;;;;;5114517;28;20024;-71
2021/09/16 15:26:15;;;;;;;16.98;7.30;;;;;;;;;;5113588;28;20032;-71
2021/09/16 15:28:41;;;;;;;21.30;6.80;;;;;;;;;;5114453;28;20028;-71
2021/09/16 15:31:07;;;;;;;19.20;7.28;;;;;;;;;;5114319;28;20032;-70
2021/09/16 15:33:34;;;;;;;20.92;6.82;;;;;;;;;;5114625;28;20066;-71
2021/09/16 15:36:00;;;;;;;25.33;6.85;;;;;;;;;;5114471;28;20431;-70
2021/09/16 15:38:27;;;;;;;19.65;6.97;;;;;;;;;;5114379;28;20524;-70
2021/09/16 15:40:53;;;;;;;18.77;6.53;;;;;;;;;;5114492;28;20117;-71
2021/09/16 15:43:19;;;;;;;26.50;7.57;;;;;;;;;;5114101;28;20031;-71
2021/09/16 15:45:47;;;;;;;26.38;7.22;;;;;;;;;;5113962;28;20052;-70
2021/09/16 15:48:13;;;;;;;23.33;7.05;;;;;;;;;;5114422;28;20434;-71
2021/09/16 15:50:39;;;;;;;20.35;7.07;;;;;;;;;;5114215;28;20102;-72
2021/09/16 15:53:07;;;;;;;19.52;6.80;;;;;;;;;;5114073;28;20036;-70
2021/09/16 15:55:33;;;;;;;14.93;6.15;;;;;;;;;;5114143;28;20081;-71
2021/09/16 15:57:59;;;;;;;25.33;6.82;;;;;;;;;;5113498;28;20036;-70
2021/09/16 16:00:25;;;;;;;19.05;6.63;;;;;;;;;;5113810;28;20027;-69
2021/09/16 16:02:51;;;;;;;18.13;6.40;;;;;;;;;;5113724;28;20035;-70
2021/09/16 16:05:17;;;;;;;15.65;7.18;;;;;;;;;;5113909;28;20031;-70
2021/09/16 16:07:44;;;;;;;19.83;7.20;;;;;;;;;;5113700;28;20127;-70
2021/09/16 16:10:11;;;;;;;17.38;6.20;;;;;;;;;;5113728;28;20031;-71
2021/09/16 16:12:37;;;;;;;17.52;6.25;;;;;;;;;;5113754;28;20035;-72
2021/09/16 16:15:04;;;;;;;21.35;6.55;;;;;;;;;;5113677;28;20048;-71
2021/09/16 16:17:30;;;;;;;17.90;6.53;;;;;;;;;;5113140;28;20050;-71
2021/09/16 16:19:56;;;;;;;16.67;6.35;;;;;;;;;;5112735;28;20088;-71
2021/09/16 16:22:23;;;;;;;13.43;6.00;;;;;;;;;;5113181;28;20054;-71
2021/09/16 16:24:49;;;;;;;19.33;6.45;;;;;;;;;;5113232;28;20054;-71
2021/09/16 16:27:16;;;;;;;19.85;6.53;;;;;;;;;;5113038;28;20068;-71
2021/09/16 16:29:42;;;;;;;23.08;7.22;;;;;;;;;;5113185;28;20085;-72
2021/09/16 16:32:08;;;;;;;16.38;6.18;;;;;;;;;;5112737;28;20067;-71
2021/09/16 16:34:34;;;;;;;20.40;7.95;;;;;;;;;;5112483;28;20035;-71
2021/09/16 16:37:00;;;;;;;21.30;6.72;;;;;;;;;;5113036;28;20031;-71
2021/09/16 16:39:26;;;;;;;18.98;6.28;;;;;;;;;;5072552;28;20040;-71
2021/09/16 16:41:52;;;;;;;16.40;6.85;;;;;;;;;;5072437;28;20139;-71
2021/09/16 16:44:18;;;;;;;19.02;6.18;;;;;;;;;;5073000;28;20033;-70
2021/09/16 16:46:44;;;;;;;16.58;6.38;;;;;;;;;;5072457;28;20044;-71
2021/09/16 16:49:11;;;;;;;17.65;6.82;;;;;;;;;;5070918;28;20036;-71
2021/09/16 16:51:38;;;;;;;19.33;7.38;;;;;;;;;;5069624;28;20415;-70
2021/09/16 16:54:04;;;;;;;13.07;5.72;;;;;;;;;;5069751;28;20036;-70
2021/09/16 16:56:31;;;;;;;16.13;7.22;;;;;;;;;;5071448;28;20035;-70
2021/09/16 16:58:57;;;;;;;18.55;7.00;;;;;;;;;;5072109;28;20063;-70
2021/09/16 17:01:24;;;;;;;22.63;7.43;;;;;;;;;;5072078;28;20033;-72
2021/09/16 17:03:51;;;;;;;19.83;7.55;;;;;;;;;;5072095;28;20029;-71
2021/09/16 17:06:17;;;;;;;18.15;7.25;;;;;;;;;;5071965;28;20037;-71
2021/09/16 17:08:43;;;;;;;14.80;7.28;;;;;;;;;;5071798;28;20068;-71
2021/09/16 17:11:09;;;;;;;20.20;7.80;;;;;;;;;;5075677;28;20033;-70
2021/09/16 17:13:35;;;;;;;15.25;7.32;;;;;;;;;;5075918;28;20099;-72
2021/09/16 17:16:01;;;;;;;21.33;7.88;;;;;;;;;;5076147;28;20040;-71
2021/09/16 17:18:27;;;;;;;20.17;7.47;;;;;;;;;;5076015;28;20037;-72
2021/09/16 17:20:53;;;;;;;17.58;7.75;;;;;;;;;;5073679;28;20497;-71
2021/09/16 17:23:19;;;;;;;15.27;6.88;;;;;;;;;;5072632;28;20111;-72
2021/09/16 17:25:45;;;;;;;19.45;7.15;;;;;;;;;;5073758;28;20120;-71
2021/09/16 17:28:11;;;;;;;19.73;7.45;;;;;;;;;;5075668;28;20062;-71
2021/09/16 17:30:37;;;;;;;17.38;7.20;;;;;;;;;;5076030;28;20044;-71
2021/09/16 17:33:03;;;;;;;22.77;7.65;;;;;;;;;;5075762;28;20068;-72
2021/09/16 17:35:30;;;;;;;19.50;7.03;;;;;;;;;;5076113;28;20431;-71
2021/09/16 17:37:56;;;;;;;15.80;6.20;;;;;;;;;;5075708;28;20036;-71
2021/09/16 17:40:22;;;;;;;20.80;6.85;;;;;;;;;;5075621;28;20511;-70
2021/09/16 17:42:48;;;;;;;16.38;7.22;;;;;;;;;;5073729;28;20072;-72
2021/09/16 17:45:14;;;;;;;19.38;7.15;;;;;;;;;;5073120;28;20041;-72
2021/09/16 17:47:41;;;;;;;17.65;7.50;;;;;;;;;;5072683;28;20086;-72
2021/09/16 17:50:08;;;;;;;21.70;7.50;;;;;;;;;;5074601;28;20036;-72
2021/09/16 17:52:35;;;;;;;18.70;8.30;;;;;;;;;;5075270;28;20044;-71
2021/09/16 17:55:05;;;;;;;17.48;7.70;;;;;;;;;;5074958;28;20556;-72
2021/09/16 17:57:31;;;;;;;15.73;7.95;;;;;;;;;;5075143;28;20037;-71
2021/09/16 17:59:57;;;;;;;20.88;7.97;;;;;;;;;;5074767;28;20054;-72
2021/09/16 18:02:23;;;;;;;29.70;8.80;;;;;;;;;;5074996;28;20046;-70
2021/09/16 18:04:50;;;;;;;21.55;8.50;;;;;;;;;;5075017;28;20044;-71
2021/09/16 18:07:17;;;;;;;17.90;7.68;;;;;;;;;;5075082;28;20032;-71
2021/09/16 18:09:44;;;;;;;20.80;8.60;;;;;;;;;;5073676;28;20051;-71
2021/09/16 18:12:10;;;;;;;15.05;8.40;;;;;;;;;;5073604;28;20033;-72
2021/09/16 18:14:36;;;;;;;15.85;8.65;;;;;;;;;;5074002;28;20084;-72
2021/09/16 18:17:02;;;;;;;16.45;7.35;;;;;;;;;;5075074;28;20389;-72
2021/09/16 18:19:29;;;;;;;17.17;7.90;;;;;;;;;;5074498;28;20039;-71
2021/09/16 18:21:56;;;;;;;19.85;7.63;;;;;;;;;;5074668;28;20045;-73
2021/09/16 18:24:22;;;;;;;16.60;7.95;;;;;;;;;;5075249;28;20443;-71
2021/09/16 18:26:48;;;;;;;16.83;8.40;;;;;;;;;;5074552;28;20039;-72
2021/09/16 18:29:14;;;;;;;13.82;8.43;;;;;;;;;;5074992;28;20389;-71
2021/09/16 18:31:40;;;;;;;21.35;9.30;;;;;;;;;;5074647;28;20086;-71
2021/09/16 18:34:06;;;;;;;20.73;7.97;;;;;;;;;;5074442;28;20131;-70
2021/09/16 18:36:32;;;;;;;16.90;9.00;;;;;;;;;;5074340;28;20064;-71
2021/09/16 18:39:01;;;;;;;18.05;8.70;;;;;;;;;;5074374;28;20036;-72
2021/09/16 18:41:27;;;;;;;19.90;9.93;;;;;;;;;;5074766;28;20085;-69
2021/09/16 18:43:54;;;;;;;29.15;10.18;;;;;;;;;;5074225;28;20078;-69
2021/09/16 18:46:20;;;;;;;23.38;9.93;;;;;;;;;;5074310;28;20043;-69
2021/09/16 18:48:46;;;;;;;19.25;9.95;;;;;;;;;;5074803;28;20461;-69
2021/09/16 18:51:12;;;;;;;21.30;9.70;;;;;;;;;;5073723;28;20044;-70
2021/09/16 18:53:38;;;;;;;16.73;10.30;;;;;;;;;;5073806;28;20219;-70
2021/09/16 18:56:04;;;;;;;22.52;11.05;;;;;;;;;;5073858;28;20032;-69
2021/09/16 18:58:30;;;;;;;23.90;11.00;;;;;;;;;;5073371;28;20044;-69
2021/09/16 19:00:59;;;;;;;22.73;9.90;;;;;;;;;;5073595;28;20115;-69
2021/09/16 19:03:26;;;;;;;30.08;10.68;;;;;;;;;;5073966;28;20032;-69
2021/09/16 19:05:53;;;;;;;21.35;10.77;;;;;;;;;;5073294;28;20037;-69
2021/09/16 19:08:19;;;;;;;18.67;10.23;;;;;;;;;;5074102;28;20029;-70
2021/09/16 19:10:45;;;;;;;21.52;9.18;;;;;;;;;;5073793;28;20036;-71
2021/09/16 19:13:11;;;;;;;18.20;9.05;;;;;;;;;;5055149;28;20439;-70
2021/09/16 19:15:37;;;;;;;24.02;9.85;;;;;;;;;;5073767;28;20032;-69
2021/09/16 19:18:03;;;;;;;20.60;9.30;;;;;;;;;;5073315;28;20041;-70
2021/09/16 19:20:30;;;;;;;22.17;9.40;;;;;;;;;;5073268;28;20063;-70
2021/09/16 19:22:56;;;;;;;28.33;10.07;;;;;;;;;;5073406;28;20036;-70
2021/09/16 19:25:22;;;;;;;20.80;10.38;;;;;;;;;;5073696;28;20052;-69
2021/09/16 19:27:48;;;;;;;22.48;10.75;;;;;;;;;;5073426;28;20040;-69
2021/09/16 19:30:16;;;;;;;19.80;9.23;;;;;;;;;;5073572;28;20061;-70
2021/09/16 19:32:42;;;;;;;15.70;7.97;;;;;;;;;;5072981;28;20048;-69
2021/09/16 19:35:09;;;;;;;25.65;9.45;;;;;;;;;;5073344;28;20040;-70
2021/09/16 19:37:35;;;;;;;17.08;8.77;;;;;;;;;;5073465;28;20040;-71
2021/09/16 19:40:01;;;;;;;19.52;9.25;;;;;;;;;;5073428;28;20163;-69
2021/09/16 19:42:27;;;;;;;20.42;9.20;;;;;;;;;;5073027;28;20195;-69
2021/09/16 19:44:53;;;;;;;24.60;8.10;;;;;;;;;;5073411;28;20033;-67
2021/09/16 19:47:19;;;;;;;23.20;9.23;;;;;;;;;;5072972;28;20028;-67
2021/09/16 19:49:45;;;;;;;21.40;9.15;;;;;;;;;;5073059;28;20034;-68
2021/09/16 19:52:12;;;;;;;19.88;9.45;;;;;;;;;;5073291;28;20115;-68
2021/09/16 19:54:38;;;;;;;16.30;8.23;;;;;;;;;;5073100;28;20032;-68
2021/09/16 19:57:04;;;;;;;16.17;9.25;;;;;;;;;;5072780;28;20039;-69
2021/09/16 19:59:30;;;;;;;19.35;9.30;;;;;;;;;;5072969;28;20032;-68
2021/09/16 20:01:56;;;;;;;20.27;9.30;;;;;;;;;;5072613;28;20059;-68
2021/09/16 20:04:23;;;;;;;15.25;8.55;;;;;;;;;;5072745;28;20101;-68
2021/09/16 20:06:50;;;;;;;17.08;9.60;;;;;;;;;;5072829;28;20055;-67
2021/09/16 20:09:16;;;;;;;19.20;9.57;;;;;;;;;;5072949;28;20108;-67
2021/09/16 20:11:42;;;;;;;21.70;9.00;;;;;;;;;;5072511;28;20028;-67
2021/09/16 20:14:08;;;;;;;20.13;9.35;;;;;;;;;;5071429;28;20036;-68
2021/09/16 20:16:34;;;;;;;28.27;9.13;;;;;;;;;;5073147;28;20241;-68
2021/09/16 20:19:00;;;;;;;17.88;8.23;;;;;;;;;;5074714;28;20036;-67
2021/09/16 20:21:26;;;;;;;20.48;9.30;;;;;;;;;;5071056;28;20126;-68
2021/09/16 20:23:52;;;;;;;40.88;10.15;;;;;;;;;;5071608;28;20029;-68
2021/09/16 20:26:18;;;;;;;15.55;8.88;;;;;;;;;;5072637;28;20043;-68
2021/09/16 20:28:44;;;;;;;17.75;8.18;;;;;;;;;;5072664;28;20036;-68
2021/09/16 20:31:10;;;;;;;12.95;7.57;;;;;;;;;;5072879;28;20097;-68
2021/09/16 20:33:36;;;;;;;19.85;7.72;;;;;;;;;;5072679;28;20108;-69
2021/09/16 20:36:02;;;;;;;16.65;8.55;;;;;;;;;;5072435;28;20036;-69
2021/09/16 20:38:29;;;;;;;18.63;8.52;;;;;;;;;;5072226;28;20094;-69
2021/09/16 20:40:55;;;;;;;15.23;7.88;;;;;;;;;;5072725;28;20143;-68
2021/09/16 20:43:21;;;;;;;17.58;8.07;;;;;;;;;;5074686;28;20035;-69
2021/09/16 20:45:51;;;;;;;22.08;9.68;;;;;;;;;;5079079;28;20433;-68
2021/09/16 20:48:17;;;;;;;17.05;9.23;;;;;;;;;;5079594;28;20048;-68
2021/09/16 20:50:43;;;;;;;22.13;8.80;;;;;;;;;;5079270;28;20402;-68
2021/09/16 20:53:09;;;;;;;17.13;9.23;;;;;;;;;;5079248;28;20060;-68
2021/09/16 20:55:36;;;;;;;22.58;8.70;;;;;;;;;;5078931;28;20040;-68
2021/09/16 20:58:03;;;;;;;17.85;8.93;;;;;;;;;;5078708;28;20036;-68
2021/09/16 21:00:29;;;;;;;20.63;9.55;;;;;;;;;;5076680;28;20025;-69
2021/09/16 21:02:55;;;;;;;17.40;9.45;;;;;;;;;;5075983;28;20093;-69
2021/09/16 21:05:21;;;;;;;18.38;8.88;;;;;;;;;;5077422;28;20056;-68
2021/09/16 21:07:48;;;;;;;17.02;8.40;;;;;;;;;;5078719;28;20036;-69
2021/09/16 21:10:14;;;;;;;22.73;9.07;;;;;;;;;;5078845;28;20085;-69
2021/09/16 21:12:41;;;;;;;16.27;8.52;;;;;;;;;;5077716;28;20511;-68
2021/09/16 21:15:07;;;;;;;24.48;8.40;;;;;;;;;;5075826;28;20412;-69
2021/09/16 21:17:34;;;;;;;20.25;7.85;;;;;;;;;;5076138;28;20107;-69
2021/09/16 21:20:00;;;;;;;23.02;7.85;;;;;;;;;;5077392;28;20029;-68
2021/09/16 21:22:26;;;;;;;18.73;8.20;;;;;;;;;;5078528;28;20044;-69
2021/09/16 21:24:52;;;;;;;16.80;7.53;;;;;;;;;;5078911;28;20473;-68
2021/09/16 21:27:18;;;;;;;16.42;7.43;;;;;;;;;;5078723;28;20032;-69
2021/09/16 21:29:44;;;;;;;18.02;7.18;;;;;;;;;;5078450;28;20036;-69
2021/09/16 21:32:10;;;;;;;15.43;7.90;;;;;;;;;;5078692;28;20032;-68
2021/09/16 21:34:36;;;;;;;20.52;8.23;;;;;;;;;;5078748;28;20040;-69
2021/09/16 21:37:02;;;;;;;18.25;7.63;;;;;;;;;;5078882;28;20024;-68
2021/09/16 21:39:28;;;;;;;17.95;7.85;;;;;;;;;;5078995;28;20039;-69
2021/09/16 21:41:54;;;;;;;19.58;7.65;;;;;;;;;;5078685;28;20097;-68
2021/09/16 21:44:20;;;;;;;16.90;6.90;;;;;;;;;;5078355;28;20029;-68
2021/09/16 21:46:46;;;;;;;15.75;7.50;;;;;;;;;;5078601;28;20111;-68
2021/09/16 21:49:12;;;;;;;19.38;7.05;;;;;;;;;;5078765;28;20028;-68
2021/09/16 21:51:39;;;;;;;16.98;7.57;;;;;;;;;;5078347;28;20171;-68
2021/09/16 21:54:06;;;;;;;18.13;7.43;;;;;;;;;;5078578;28;20028;-68
2021/09/16 21:56:32;;;;;;;19.77;7.53;;;;;;;;;;5074624;28;20033;-69
2021/09/16 21:58:58;;;;;;;18.13;7.18;;;;;;;;;;5075270;28;20366;-68
2021/09/16 22:01:24;;;;;;;18.63;7.05;;;;;;;;;;5075399;28;20040;-69
2021/09/16 22:03:50;;;;;;;23.02;7.68;;;;;;;;;;5075290;28;20036;-69
2021/09/16 22:06:16;;;;;;;16.17;6.55;;;;;;;;;;5074872;28;20042;-68
2021/09/16 22:08:42;;;;;;;13.75;7.43;;;;;;;;;;5074878;28;20114;-68
2021/09/16 22:11:09;;;;;;;17.10;7.30;;;;;;;;;;5074556;28;20461;-68
2021/09/16 22:13:36;;;;;;;15.10;7.30;;;;;;;;;;5074798;28;20413;-68
2021/09/16 22:16:02;;;;;;;21.38;8.30;;;;;;;;;;5075018;28;20036;-68
2021/09/16 22:18:28;;;;;;;14.32;6.75;;;;;;;;;;5074977;28;20072;-68
2021/09/16 22:20:54;;;;;;;15.95;7.50;;;;;;;;;;5074910;28;20119;-68
2021/09/16 22:23:20;;;;;;;18.73;7.50;;;;;;;;;;5074872;28;20047;-69
2021/09/16 22:25:46;;;;;;;21.05;7.22;;;;;;;;;;5074571;28;20029;-68
2021/09/16 22:28:12;;;;;;;15.75;7.55;;;;;;;;;;5074698;28;20538;-69
2021/09/16 22:30:39;;;;;;;16.33;7.35;;;;;;;;;;5074688;28;20453;-69
2021/09/16 22:33:05;;;;;;;15.20;6.30;;;;;;;;;;5074930;28;20028;-68
2021/09/16 22:35:31;;;;;;;15.35;7.10;;;;;;;;;;5074647;28;20040;-68
2021/09/16 22:37:57;;;;;;;17.52;7.53;;;;;;;;;;5074937;28;20561;-68
2021/09/16 22:40:23;;;;;;;13.73;6.50;;;;;;;;;;5074404;28;20040;-68
2021/09/16 22:42:49;;;;;;;16.73;6.80;;;;;;;;;;5074426;28;20048;-68